sensor_id;sensor_type;location;lat;lon;timestamp;temperature;humidity
78696;SHT31;68030;51.980;5.646;2023-04-19T00:02:24;13.4;53.8
78696;SHT31;68030;51.980;5.646;2023-04-19T00:04:55;13.4;54.1
78696;SHT31;68030;51.980;5.646;2023-04-19T00:07:25;13.4;53.9
78696;SHT31;68030;51.980;5.646;2023-04-19T00:09:54;13.4;54.1
78696;SHT31;68030;51.980;5.646;2023-04-19T00:12:24;13.5;54.0
78696;SHT31;68030;51.980;5.646;2023-04-19T00:14:58;13.5;54.4
78696;SHT31;68030;51.980;5.646;2023-04-19T00:17:27;13.5;54.1
78696;SHT31;68030;51.980;5.646;2023-04-19T00:19:59;13.6;54.2
78696;SHT31;68030;51.980;5.646;2023-04-19T00:22:30;13.6;54.2
78696;SHT31;68030;51.980;5.646;2023-04-19T00:25:00;13.6;54.2
78696;SHT31;68030;51.980;5.646;2023-04-19T00:27:29;13.7;54.1
78696;SHT31;68030;51.980;5.646;2023-04-19T00:30:00;13.7;54.0
78696;SHT31;68030;51.980;5.646;2023-04-19T00:32:30;13.7;54.0
78696;SHT31;68030;51.980;5.646;2023-04-19T00:35:00;13.7;54.1
78696;SHT31;68030;51.980;5.646;2023-04-19T00:37:30;13.7;54.0
78696;SHT31;68030;51.980;5.646;2023-04-19T00:40:00;13.7;54.1
78696;SHT31;68030;51.980;5.646;2023-04-19T00:42:30;13.7;54.1
78696;SHT31;68030;51.980;5.646;2023-04-19T00:45:00;13.7;54.2
78696;SHT31;68030;51.980;5.646;2023-04-19T00:47:31;13.7;54.3
78696;SHT31;68030;51.980;5.646;2023-04-19T00:50:02;13.7;54.3
78696;SHT31;68030;51.980;5.646;2023-04-19T00:52:33;13.7;54.2
78696;SHT31;68030;51.980;5.646;2023-04-19T00:55:04;13.7;54.2
78696;SHT31;68030;51.980;5.646;2023-04-19T00:57:36;13.7;54.5
78696;SHT31;68030;51.980;5.646;2023-04-19T01:00:08;13.7;54.5
78696;SHT31;68030;51.980;5.646;2023-04-19T01:02:38;13.7;54.4
78696;SHT31;68030;51.980;5.646;2023-04-19T01:05:08;13.7;54.4
78696;SHT31;68030;51.980;5.646;2023-04-19T01:07:39;13.6;54.4
78696;SHT31;68030;51.980;5.646;2023-04-19T01:10:09;13.6;54.3
78696;SHT31;68030;51.980;5.646;2023-04-19T01:12:39;13.6;54.5
78696;SHT31;68030;51.980;5.646;2023-04-19T01:15:11;13.6;54.4
78696;SHT31;68030;51.980;5.646;2023-04-19T01:17:41;13.5;54.4
78696;SHT31;68030;51.980;5.646;2023-04-19T01:20:11;13.5;54.5
78696;SHT31;68030;51.980;5.646;2023-04-19T01:22:41;13.5;54.6
78696;SHT31;68030;51.980;5.646;2023-04-19T01:25:12;13.4;54.8
78696;SHT31;68030;51.980;5.646;2023-04-19T01:27:42;13.4;54.9
78696;SHT31;68030;51.980;5.646;2023-04-19T01:30:13;13.4;54.9
78696;SHT31;68030;51.980;5.646;2023-04-19T01:32:43;13.3;55.1
78696;SHT31;68030;51.980;5.646;2023-04-19T01:35:13;13.3;55.3
78696;SHT31;68030;51.980;5.646;2023-04-19T01:37:42;13.3;55.3
78696;SHT31;68030;51.980;5.646;2023-04-19T01:40:12;13.2;55.5
78696;SHT31;68030;51.980;5.646;2023-04-19T01:42:42;13.2;55.6
78696;SHT31;68030;51.980;5.646;2023-04-19T01:45:12;13.1;55.8
78696;SHT31;68030;51.980;5.646;2023-04-19T01:47:42;13.1;55.9
78696;SHT31;68030;51.980;5.646;2023-04-19T01:50:12;13.1;56.0
78696;SHT31;68030;51.980;5.646;2023-04-19T01:52:42;13.1;56.1
78696;SHT31;68030;51.980;5.646;2023-04-19T01:55:12;13.0;56.2
78696;SHT31;68030;51.980;5.646;2023-04-19T01:57:41;13.0;56.5
78696;SHT31;68030;51.980;5.646;2023-04-19T02:00:13;13.0;56.5
78696;SHT31;68030;51.980;5.646;2023-04-19T02:02:44;12.9;56.5
78696;SHT31;68030;51.980;5.646;2023-04-19T02:05:16;12.9;56.5
78696;SHT31;68030;51.980;5.646;2023-04-19T02:07:46;12.9;56.6
78696;SHT31;68030;51.980;5.646;2023-04-19T02:10:15;12.9;56.7
78696;SHT31;68030;51.980;5.646;2023-04-19T02:12:47;12.9;56.7
78696;SHT31;68030;51.980;5.646;2023-04-19T02:15:16;12.9;56.8
78696;SHT31;68030;51.980;5.646;2023-04-19T02:17:46;12.8;56.9
78696;SHT31;68030;51.980;5.646;2023-04-19T02:20:17;12.8;57.0
78696;SHT31;68030;51.980;5.646;2023-04-19T02:22:47;12.8;57.1
78696;SHT31;68030;51.980;5.646;2023-04-19T02:25:16;12.8;57.3
78696;SHT31;68030;51.980;5.646;2023-04-19T02:27:46;12.8;57.4
78696;SHT31;68030;51.980;5.646;2023-04-19T02:30:17;12.8;57.3
78696;SHT31;68030;51.980;5.646;2023-04-19T02:32:48;12.7;57.3
78696;SHT31;68030;51.980;5.646;2023-04-19T02:35:18;12.7;57.4
78696;SHT31;68030;51.980;5.646;2023-04-19T02:37:47;12.7;57.5
78696;SHT31;68030;51.980;5.646;2023-04-19T02:40:17;12.7;57.6
78696;SHT31;68030;51.980;5.646;2023-04-19T02:42:49;12.6;57.7
78696;SHT31;68030;51.980;5.646;2023-04-19T02:45:19;12.6;57.7
78696;SHT31;68030;51.980;5.646;2023-04-19T02:47:49;12.6;58.0
78696;SHT31;68030;51.980;5.646;2023-04-19T02:50:19;12.6;57.9
78696;SHT31;68030;51.980;5.646;2023-04-19T02:52:48;12.5;58.0
78696;SHT31;68030;51.980;5.646;2023-04-19T02:55:18;12.5;58.2
78696;SHT31;68030;51.980;5.646;2023-04-19T02:57:48;12.5;58.3
78696;SHT31;68030;51.980;5.646;2023-04-19T03:00:19;12.5;58.3
78696;SHT31;68030;51.980;5.646;2023-04-19T03:02:48;12.5;58.5
78696;SHT31;68030;51.980;5.646;2023-04-19T03:05:18;12.5;58.3
78696;SHT31;68030;51.980;5.646;2023-04-19T03:07:48;12.5;58.3
78696;SHT31;68030;51.980;5.646;2023-04-19T03:10:17;12.6;58.2
78696;SHT31;68030;51.980;5.646;2023-04-19T03:12:47;12.6;58.1
78696;SHT31;68030;51.980;5.646;2023-04-19T03:15:17;12.6;58.0
78696;SHT31;68030;51.980;5.646;2023-04-19T03:17:49;12.6;58.0
78696;SHT31;68030;51.980;5.646;2023-04-19T03:20:19;12.7;57.8
78696;SHT31;68030;51.980;5.646;2023-04-19T03:22:51;12.7;57.7
78696;SHT31;68030;51.980;5.646;2023-04-19T03:25:21;12.7;57.6
78696;SHT31;68030;51.980;5.646;2023-04-19T03:27:51;12.7;57.3
78696;SHT31;68030;51.980;5.646;2023-04-19T03:30:20;12.8;57.2
78696;SHT31;68030;51.980;5.646;2023-04-19T03:32:52;12.8;57.2
78696;SHT31;68030;51.980;5.646;2023-04-19T03:35:22;12.8;57.0
78696;SHT31;68030;51.980;5.646;2023-04-19T03:37:52;12.8;57.1
78696;SHT31;68030;51.980;5.646;2023-04-19T03:40:22;12.8;56.8
78696;SHT31;68030;51.980;5.646;2023-04-19T03:42:52;12.9;56.9
78696;SHT31;68030;51.980;5.646;2023-04-19T03:45:22;12.9;56.7
78696;SHT31;68030;51.980;5.646;2023-04-19T03:47:51;12.9;56.6
78696;SHT31;68030;51.980;5.646;2023-04-19T03:50:21;12.9;56.5
78696;SHT31;68030;51.980;5.646;2023-04-19T03:52:51;12.9;56.2
78696;SHT31;68030;51.980;5.646;2023-04-19T03:55:21;12.9;56.3
78696;SHT31;68030;51.980;5.646;2023-04-19T03:57:51;12.9;56.1
78696;SHT31;68030;51.980;5.646;2023-04-19T04:00:21;13.0;55.8
78696;SHT31;68030;51.980;5.646;2023-04-19T04:02:51;12.9;55.9
78696;SHT31;68030;51.980;5.646;2023-04-19T04:05:21;12.9;55.8
78696;SHT31;68030;51.980;5.646;2023-04-19T04:07:51;12.9;55.7
78696;SHT31;68030;51.980;5.646;2023-04-19T04:10:22;12.9;55.5
78696;SHT31;68030;51.980;5.646;2023-04-19T04:12:52;12.9;55.7
78696;SHT31;68030;51.980;5.646;2023-04-19T04:15:22;12.8;55.8
78696;SHT31;68030;51.980;5.646;2023-04-19T04:17:51;12.8;55.6
78696;SHT31;68030;51.980;5.646;2023-04-19T04:20:22;12.8;55.7
78696;SHT31;68030;51.980;5.646;2023-04-19T04:22:51;12.7;55.8
78696;SHT31;68030;51.980;5.646;2023-04-19T04:25:22;12.7;55.5
78696;SHT31;68030;51.980;5.646;2023-04-19T04:27:52;12.7;55.6
78696;SHT31;68030;51.980;5.646;2023-04-19T04:30:22;12.6;55.7
78696;SHT31;68030;51.980;5.646;2023-04-19T04:32:53;12.6;55.8
78696;SHT31;68030;51.980;5.646;2023-04-19T04:35:24;12.5;55.6
78696;SHT31;68030;51.980;5.646;2023-04-19T04:37:56;12.5;55.8
78696;SHT31;68030;51.980;5.646;2023-04-19T04:40:26;12.5;55.9
78696;SHT31;68030;51.980;5.646;2023-04-19T04:42:56;12.4;56.1
78696;SHT31;68030;51.980;5.646;2023-04-19T04:45:27;12.4;55.7
78696;SHT31;68030;51.980;5.646;2023-04-19T04:47:58;12.3;55.8
78696;SHT31;68030;51.980;5.646;2023-04-19T04:50:28;12.3;55.7
78696;SHT31;68030;51.980;5.646;2023-04-19T04:52:58;12.3;55.9
78696;SHT31;68030;51.980;5.646;2023-04-19T04:55:29;12.2;55.7
78696;SHT31;68030;51.980;5.646;2023-04-19T04:57:59;12.2;55.7
78696;SHT31;68030;51.980;5.646;2023-04-19T05:00:31;12.1;55.7
78696;SHT31;68030;51.980;5.646;2023-04-19T05:03:03;12.1;55.7
78696;SHT31;68030;51.980;5.646;2023-04-19T05:05:33;12.1;55.8
78696;SHT31;68030;51.980;5.646;2023-04-19T05:08:03;12.1;55.6
78696;SHT31;68030;51.980;5.646;2023-04-19T05:10:33;12.1;55.6
78696;SHT31;68030;51.980;5.646;2023-04-19T05:13:06;12.0;55.3
78696;SHT31;68030;51.980;5.646;2023-04-19T05:15:35;12.0;55.3
78696;SHT31;68030;51.980;5.646;2023-04-19T05:18:05;12.0;54.9
78696;SHT31;68030;51.980;5.646;2023-04-19T05:20:35;12.0;54.7
78696;SHT31;68030;51.980;5.646;2023-04-19T05:23:05;12.0;54.7
78696;SHT31;68030;51.980;5.646;2023-04-19T05:25:37;12.0;54.3
78696;SHT31;68030;51.980;5.646;2023-04-19T05:28:07;12.0;54.5
78696;SHT31;68030;51.980;5.646;2023-04-19T05:30:37;12.0;54.3
78696;SHT31;68030;51.980;5.646;2023-04-19T05:33:09;12.0;54.4
78696;SHT31;68030;51.980;5.646;2023-04-19T05:35:39;12.1;54.0
78696;SHT31;68030;51.980;5.646;2023-04-19T05:38:08;12.1;53.6
78696;SHT31;68030;51.980;5.646;2023-04-19T05:40:39;12.1;53.6
78696;SHT31;68030;51.980;5.646;2023-04-19T05:43:11;12.1;53.5
78696;SHT31;68030;51.980;5.646;2023-04-19T05:45:41;12.1;53.1
78696;SHT31;68030;51.980;5.646;2023-04-19T05:48:10;12.2;53.0
78696;SHT31;68030;51.980;5.646;2023-04-19T05:50:40;12.2;53.0
78696;SHT31;68030;51.980;5.646;2023-04-19T05:53:10;12.2;52.1
78696;SHT31;68030;51.980;5.646;2023-04-19T05:55:42;12.3;51.8
78696;SHT31;68030;51.980;5.646;2023-04-19T05:58:12;12.3;51.6
78696;SHT31;68030;51.980;5.646;2023-04-19T06:00:41;12.4;50.1
78696;SHT31;68030;51.980;5.646;2023-04-19T06:03:11;12.4;49.9
78696;SHT31;68030;51.980;5.646;2023-04-19T06:05:41;12.5;49.8
78696;SHT31;68030;51.980;5.646;2023-04-19T06:08:10;12.5;48.6
78696;SHT31;68030;51.980;5.646;2023-04-19T06:10:42;12.6;47.4
78696;SHT31;68030;51.980;5.646;2023-04-19T06:13:14;12.6;47.1
78696;SHT31;68030;51.980;5.646;2023-04-19T06:15:47;12.6;47.1
78696;SHT31;68030;51.980;5.646;2023-04-19T06:18:17;12.7;46.6
78696;SHT31;68030;51.980;5.646;2023-04-19T06:20:47;12.7;46.4
78696;SHT31;68030;51.980;5.646;2023-04-19T06:23:16;12.7;45.8
78696;SHT31;68030;51.980;5.646;2023-04-19T06:25:47;12.8;45.3
78696;SHT31;68030;51.980;5.646;2023-04-19T06:28:19;12.8;45.2
78696;SHT31;68030;51.980;5.646;2023-04-19T06:30:48;12.8;44.6
78696;SHT31;68030;51.980;5.646;2023-04-19T06:33:18;12.9;44.4
78696;SHT31;68030;51.980;5.646;2023-04-19T06:35:47;12.9;44.7
78696;SHT31;68030;51.980;5.646;2023-04-19T06:38:17;12.9;43.9
78696;SHT31;68030;51.980;5.646;2023-04-19T06:40:47;13.0;43.9
78696;SHT31;68030;51.980;5.646;2023-04-19T06:43:16;13.0;43.2
78696;SHT31;68030;51.980;5.646;2023-04-19T06:45:46;13.1;42.3
78696;SHT31;68030;51.980;5.646;2023-04-19T06:48:16;13.1;42.2
78696;SHT31;68030;51.980;5.646;2023-04-19T06:50:45;13.2;42.1
78696;SHT31;68030;51.980;5.646;2023-04-19T06:53:15;13.2;40.6
78696;SHT31;68030;51.980;5.646;2023-04-19T06:55:45;13.2;41.5
78696;SHT31;68030;51.980;5.646;2023-04-19T06:58:15;13.3;40.1
78696;SHT31;68030;51.980;5.646;2023-04-19T07:00:44;13.3;39.9
78696;SHT31;68030;51.980;5.646;2023-04-19T07:03:14;13.4;39.7
78696;SHT31;68030;51.980;5.646;2023-04-19T07:05:44;13.4;38.9
78696;SHT31;68030;51.980;5.646;2023-04-19T07:08:14;13.5;39.5
78696;SHT31;68030;51.980;5.646;2023-04-19T07:10:44;13.5;38.0
78696;SHT31;68030;51.980;5.646;2023-04-19T07:13:15;13.6;39.1
78696;SHT31;68030;51.980;5.646;2023-04-19T07:15:47;13.6;38.0
78696;SHT31;68030;51.980;5.646;2023-04-19T07:18:17;13.7;38.1
78696;SHT31;68030;51.980;5.646;2023-04-19T07:20:47;13.8;36.4
78696;SHT31;68030;51.980;5.646;2023-04-19T07:23:17;13.8;36.6
78696;SHT31;68030;51.980;5.646;2023-04-19T07:25:46;13.9;36.4
78696;SHT31;68030;51.980;5.646;2023-04-19T07:28:16;13.9;36.6
78696;SHT31;68030;51.980;5.646;2023-04-19T07:30:46;13.9;35.6
78696;SHT31;68030;51.980;5.646;2023-04-19T07:33:15;14.0;35.9
78696;SHT31;68030;51.980;5.646;2023-04-19T07:35:45;14.0;36.1
78696;SHT31;68030;51.980;5.646;2023-04-19T07:38:14;14.0;36.0
78696;SHT31;68030;51.980;5.646;2023-04-19T07:40:44;14.0;35.9
78696;SHT31;68030;51.980;5.646;2023-04-19T07:43:14;14.1;36.2
78696;SHT31;68030;51.980;5.646;2023-04-19T07:45:45;14.1;35.9
78696;SHT31;68030;51.980;5.646;2023-04-19T07:48:15;14.1;35.6
78696;SHT31;68030;51.980;5.646;2023-04-19T07:50:44;14.2;35.5
78696;SHT31;68030;51.980;5.646;2023-04-19T07:53:14;14.2;35.9
78696;SHT31;68030;51.980;5.646;2023-04-19T07:55:44;14.2;35.7
78696;SHT31;68030;51.980;5.646;2023-04-19T07:58:16;14.2;36.4
78696;SHT31;68030;51.980;5.646;2023-04-19T08:00:46;14.3;35.5
78696;SHT31;68030;51.980;5.646;2023-04-19T08:03:15;14.3;35.8
78696;SHT31;68030;51.980;5.646;2023-04-19T08:05:45;14.3;35.4
78696;SHT31;68030;51.980;5.646;2023-04-19T08:08:14;14.4;35.0
78696;SHT31;68030;51.980;5.646;2023-04-19T08:10:44;14.4;35.2
78696;SHT31;68030;51.980;5.646;2023-04-19T08:13:14;14.4;35.0
78696;SHT31;68030;51.980;5.646;2023-04-19T08:15:44;14.5;35.2
78696;SHT31;68030;51.980;5.646;2023-04-19T08:18:13;14.5;34.8
78696;SHT31;68030;51.980;5.646;2023-04-19T08:20:45;14.6;34.8
78696;SHT31;68030;51.980;5.646;2023-04-19T08:23:15;14.6;35.0
78696;SHT31;68030;51.980;5.646;2023-04-19T08:25:45;14.7;33.8
78696;SHT31;68030;51.980;5.646;2023-04-19T08:28:15;14.7;33.2
78696;SHT31;68030;51.980;5.646;2023-04-19T08:30:45;14.8;33.1
78696;SHT31;68030;51.980;5.646;2023-04-19T08:33:15;14.8;33.0
78696;SHT31;68030;51.980;5.646;2023-04-19T08:35:46;14.9;33.7
78696;SHT31;68030;51.980;5.646;2023-04-19T08:38:16;14.9;33.4
78696;SHT31;68030;51.980;5.646;2023-04-19T08:40:51;15.0;33.1
78696;SHT31;68030;51.980;5.646;2023-04-19T08:43:24;15.0;33.1
78696;SHT31;68030;51.980;5.646;2023-04-19T08:45:58;15.1;35.2
78696;SHT31;68030;51.980;5.646;2023-04-19T08:48:28;15.1;33.7
78696;SHT31;68030;51.980;5.646;2023-04-19T08:50:59;15.2;33.2
78696;SHT31;68030;51.980;5.646;2023-04-19T08:53:29;15.3;32.6
78696;SHT31;68030;51.980;5.646;2023-04-19T08:56:00;15.4;33.3
78696;SHT31;68030;51.980;5.646;2023-04-19T08:58:31;15.5;32.0
78696;SHT31;68030;51.980;5.646;2023-04-19T09:01:05;15.6;31.6
78696;SHT31;68030;51.980;5.646;2023-04-19T09:03:44;15.6;31.7
78696;SHT31;68030;51.980;5.646;2023-04-19T09:06:14;15.7;30.5
78696;SHT31;68030;51.980;5.646;2023-04-19T09:08:45;15.8;31.0
78696;SHT31;68030;51.980;5.646;2023-04-19T09:11:14;15.8;29.8
78696;SHT31;68030;51.980;5.646;2023-04-19T09:13:44;15.8;30.1
78696;SHT31;68030;51.980;5.646;2023-04-19T09:16:26;15.8;28.7
78696;SHT31;68030;51.980;5.646;2023-04-19T09:18:56;15.8;28.7
78696;SHT31;68030;51.980;5.646;2023-04-19T09:21:32;15.8;30.2
78696;SHT31;68030;51.980;5.646;2023-04-19T09:24:04;15.8;29.7
78696;SHT31;68030;51.980;5.646;2023-04-19T09:26:36;15.8;28.7
78696;SHT31;68030;51.980;5.646;2023-04-19T09:29:06;15.8;29.2
78696;SHT31;68030;51.980;5.646;2023-04-19T09:31:37;15.9;28.3
78696;SHT31;68030;51.980;5.646;2023-04-19T09:34:15;15.8;28.7
78696;SHT31;68030;51.980;5.646;2023-04-19T09:36:45;15.8;30.2
78696;SHT31;68030;51.980;5.646;2023-04-19T09:39:29;15.8;28.6
78696;SHT31;68030;51.980;5.646;2023-04-19T09:41:59;15.8;29.4
78696;SHT31;68030;51.980;5.646;2023-04-19T09:44:32;15.8;28.9
78696;SHT31;68030;51.980;5.646;2023-04-19T09:47:02;15.8;29.0
78696;SHT31;68030;51.980;5.646;2023-04-19T09:49:37;15.8;29.9
78696;SHT31;68030;51.980;5.646;2023-04-19T09:52:10;15.8;29.1
78696;SHT31;68030;51.980;5.646;2023-04-19T09:54:43;15.8;29.6
78696;SHT31;68030;51.980;5.646;2023-04-19T09:57:13;15.8;29.6
78696;SHT31;68030;51.980;5.646;2023-04-19T09:59:43;15.8;30.8
78696;SHT31;68030;51.980;5.646;2023-04-19T10:02:16;15.8;30.7
78696;SHT31;68030;51.980;5.646;2023-04-19T10:04:47;15.8;30.3
78696;SHT31;68030;51.980;5.646;2023-04-19T10:07:18;15.8;30.3
78696;SHT31;68030;51.980;5.646;2023-04-19T10:09:49;15.8;30.1
78696;SHT31;68030;51.980;5.646;2023-04-19T10:12:22;15.8;29.6
78696;SHT31;68030;51.980;5.646;2023-04-19T10:14:53;15.8;30.4
78696;SHT31;68030;51.980;5.646;2023-04-19T10:17:27;15.8;30.4
78696;SHT31;68030;51.980;5.646;2023-04-19T10:20:02;15.8;30.1
78696;SHT31;68030;51.980;5.646;2023-04-19T10:22:36;15.9;30.2
78696;SHT31;68030;51.980;5.646;2023-04-19T10:25:13;15.9;30.2
78696;SHT31;68030;51.980;5.646;2023-04-19T10:27:44;16.0;30.5
78696;SHT31;68030;51.980;5.646;2023-04-19T10:30:20;16.0;30.1
78696;SHT31;68030;51.980;5.646;2023-04-19T10:32:54;16.0;30.5
78696;SHT31;68030;51.980;5.646;2023-04-19T10:35:26;16.1;29.5
78696;SHT31;68030;51.980;5.646;2023-04-19T10:38:09;16.1;30.3
78696;SHT31;68030;51.980;5.646;2023-04-19T10:40:59;16.2;29.7
78696;SHT31;68030;51.980;5.646;2023-04-19T10:43:32;16.3;30.0
78696;SHT31;68030;51.980;5.646;2023-04-19T10:46:06;16.3;29.8
78696;SHT31;68030;51.980;5.646;2023-04-19T10:48:39;16.4;29.1
78696;SHT31;68030;51.980;5.646;2023-04-19T10:51:16;16.4;28.0
78696;SHT31;68030;51.980;5.646;2023-04-19T10:53:49;16.5;27.8
78696;SHT31;68030;51.980;5.646;2023-04-19T10:56:22;16.5;28.3
78696;SHT31;68030;51.980;5.646;2023-04-19T10:59:15;16.5;27.8
78696;SHT31;68030;51.980;5.646;2023-04-19T11:01:51;16.6;28.0
78696;SHT31;68030;51.980;5.646;2023-04-19T11:04:36;16.6;27.3
78696;SHT31;68030;51.980;5.646;2023-04-19T11:07:00;16.6;27.2
78696;SHT31;68030;51.980;5.646;2023-04-19T11:09:33;16.6;27.2
78696;SHT31;68030;51.980;5.646;2023-04-19T11:12:05;16.7;27.2
78696;SHT31;68030;51.980;5.646;2023-04-19T11:14:39;16.7;27.5
78696;SHT31;68030;51.980;5.646;2023-04-19T11:17:16;16.7;28.3
78696;SHT31;68030;51.980;5.646;2023-04-19T11:19:54;16.8;27.8
78696;SHT31;68030;51.980;5.646;2023-04-19T11:22:32;16.9;26.9
78696;SHT31;68030;51.980;5.646;2023-04-19T11:25:11;16.9;27.7
78696;SHT31;68030;51.980;5.646;2023-04-19T11:27:42;17.0;26.0
78696;SHT31;68030;51.980;5.646;2023-04-19T11:30:14;17.0;25.1
78696;SHT31;68030;51.980;5.646;2023-04-19T11:32:48;17.0;24.7
78696;SHT31;68030;51.980;5.646;2023-04-19T11:35:20;17.1;25.3
78696;SHT31;68030;51.980;5.646;2023-04-19T11:37:51;17.1;25.7
78696;SHT31;68030;51.980;5.646;2023-04-19T11:40:24;17.1;25.0
78696;SHT31;68030;51.980;5.646;2023-04-19T11:42:56;17.1;24.9
78696;SHT31;68030;51.980;5.646;2023-04-19T11:45:29;17.1;24.6
78696;SHT31;68030;51.980;5.646;2023-04-19T11:47:59;17.2;24.6
78696;SHT31;68030;51.980;5.646;2023-04-19T11:50:34;17.2;24.2
78696;SHT31;68030;51.980;5.646;2023-04-19T11:53:12;17.3;24.6
78696;SHT31;68030;51.980;5.646;2023-04-19T11:55:45;17.3;24.9
78696;SHT31;68030;51.980;5.646;2023-04-19T11:58:29;17.4;23.7
78696;SHT31;68030;51.980;5.646;2023-04-19T12:01:04;17.5;22.8
78696;SHT31;68030;51.980;5.646;2023-04-19T12:03:43;17.5;23.7
78696;SHT31;68030;51.980;5.646;2023-04-19T12:06:15;17.5;23.1
78696;SHT31;68030;51.980;5.646;2023-04-19T12:08:47;17.6;23.5
78696;SHT31;68030;51.980;5.646;2023-04-19T12:11:20;17.6;23.7
78696;SHT31;68030;51.980;5.646;2023-04-19T12:14:09;17.7;23.4
78696;SHT31;68030;51.980;5.646;2023-04-19T12:16:39;17.7;23.4
78696;SHT31;68030;51.980;5.646;2023-04-19T12:19:12;17.8;22.3
78696;SHT31;68030;51.980;5.646;2023-04-19T12:21:46;17.8;21.9
78696;SHT31;68030;51.980;5.646;2023-04-19T12:24:16;17.9;21.8
78696;SHT31;68030;51.980;5.646;2023-04-19T12:26:54;17.9;21.8
78696;SHT31;68030;51.980;5.646;2023-04-19T12:29:25;17.9;21.3
78696;SHT31;68030;51.980;5.646;2023-04-19T12:31:55;18.0;22.0
78696;SHT31;68030;51.980;5.646;2023-04-19T12:34:25;18.0;21.7
78696;SHT31;68030;51.980;5.646;2023-04-19T12:36:55;18.0;21.5
78696;SHT31;68030;51.980;5.646;2023-04-19T12:39:25;18.0;22.0
78696;SHT31;68030;51.980;5.646;2023-04-19T12:41:55;18.0;23.2
78696;SHT31;68030;51.980;5.646;2023-04-19T12:44:27;18.0;23.3
78696;SHT31;68030;51.980;5.646;2023-04-19T12:46:57;18.1;22.2
78696;SHT31;68030;51.980;5.646;2023-04-19T12:49:26;18.1;23.1
78696;SHT31;68030;51.980;5.646;2023-04-19T12:51:56;18.1;23.1
78696;SHT31;68030;51.980;5.646;2023-04-19T12:54:25;18.2;22.4
78696;SHT31;68030;51.980;5.646;2023-04-19T12:56:55;18.2;23.1
78696;SHT31;68030;51.980;5.646;2023-04-19T12:59:24;18.2;23.5
78696;SHT31;68030;51.980;5.646;2023-04-19T13:01:54;18.2;23.9
78696;SHT31;68030;51.980;5.646;2023-04-19T13:04:23;18.3;23.4
78696;SHT31;68030;51.980;5.646;2023-04-19T13:06:53;18.3;23.5
78696;SHT31;68030;51.980;5.646;2023-04-19T13:09:25;18.3;22.7
78696;SHT31;68030;51.980;5.646;2023-04-19T13:11:55;18.4;21.9
78696;SHT31;68030;51.980;5.646;2023-04-19T13:14:26;18.4;22.0
78696;SHT31;68030;51.980;5.646;2023-04-19T13:16:55;18.4;23.0
78696;SHT31;68030;51.980;5.646;2023-04-19T13:19:25;18.4;22.3
78696;SHT31;68030;51.980;5.646;2023-04-19T13:21:55;18.4;22.6
78696;SHT31;68030;51.980;5.646;2023-04-19T13:24:25;18.4;21.9
78696;SHT31;68030;51.980;5.646;2023-04-19T13:26:55;18.4;22.2
78696;SHT31;68030;51.980;5.646;2023-04-19T13:29:24;18.4;23.2
78696;SHT31;68030;51.980;5.646;2023-04-19T13:31:55;18.4;23.7
78696;SHT31;68030;51.980;5.646;2023-04-19T13:34:25;18.4;23.1
78696;SHT31;68030;51.980;5.646;2023-04-19T13:36:55;18.5;23.1
78696;SHT31;68030;51.980;5.646;2023-04-19T13:39:24;18.5;24.0
78696;SHT31;68030;51.980;5.646;2023-04-19T13:41:54;18.5;24.3
78696;SHT31;68030;51.980;5.646;2023-04-19T13:44:23;18.6;23.5
78696;SHT31;68030;51.980;5.646;2023-04-19T13:46:53;18.6;23.0
78696;SHT31;68030;51.980;5.646;2023-04-19T13:49:23;18.6;22.8
78696;SHT31;68030;51.980;5.646;2023-04-19T13:51:52;18.6;21.5
78696;SHT31;68030;51.980;5.646;2023-04-19T13:54:24;18.6;22.4
78696;SHT31;68030;51.980;5.646;2023-04-19T13:56:53;18.6;21.4
78696;SHT31;68030;51.980;5.646;2023-04-19T13:59:24;18.7;21.4
78696;SHT31;68030;51.980;5.646;2023-04-19T14:01:56;18.7;21.2
78696;SHT31;68030;51.980;5.646;2023-04-19T14:04:26;18.7;20.3
78696;SHT31;68030;51.980;5.646;2023-04-19T14:06:56;18.8;21.6
78696;SHT31;68030;51.980;5.646;2023-04-19T14:09:25;18.8;21.2
78696;SHT31;68030;51.980;5.646;2023-04-19T14:11:55;18.8;20.7
78696;SHT31;68030;51.980;5.646;2023-04-19T14:14:24;18.9;20.8
78696;SHT31;68030;51.980;5.646;2023-04-19T14:16:54;18.9;20.7
78696;SHT31;68030;51.980;5.646;2023-04-19T14:19:24;18.9;21.1
78696;SHT31;68030;51.980;5.646;2023-04-19T14:21:54;18.9;21.2
78696;SHT31;68030;51.980;5.646;2023-04-19T14:24:26;19.0;21.5
78696;SHT31;68030;51.980;5.646;2023-04-19T14:26:55;19.0;22.2
78696;SHT31;68030;51.980;5.646;2023-04-19T14:29:25;19.0;22.4
78696;SHT31;68030;51.980;5.646;2023-04-19T14:31:55;19.0;22.4
78696;SHT31;68030;51.980;5.646;2023-04-19T14:34:25;19.1;22.1
78696;SHT31;68030;51.980;5.646;2023-04-19T14:36:55;19.1;22.2
78696;SHT31;68030;51.980;5.646;2023-04-19T14:39:24;19.1;22.9
78696;SHT31;68030;51.980;5.646;2023-04-19T14:41:54;19.2;22.1
78696;SHT31;68030;51.980;5.646;2023-04-19T14:44:24;19.2;22.2
78696;SHT31;68030;51.980;5.646;2023-04-19T14:46:53;19.2;22.8
78696;SHT31;68030;51.980;5.646;2023-04-19T14:49:23;19.3;23.6
78696;SHT31;68030;51.980;5.646;2023-04-19T14:51:53;19.3;23.3
78696;SHT31;68030;51.980;5.646;2023-04-19T14:54:22;19.4;23.2
78696;SHT31;68030;51.980;5.646;2023-04-19T14:56:52;19.4;22.8
78696;SHT31;68030;51.980;5.646;2023-04-19T14:59:22;19.4;22.9
78696;SHT31;68030;51.980;5.646;2023-04-19T15:01:52;19.4;23.4
78696;SHT31;68030;51.980;5.646;2023-04-19T15:04:22;19.4;23.5
78696;SHT31;68030;51.980;5.646;2023-04-19T15:06:51;19.4;23.0
78696;SHT31;68030;51.980;5.646;2023-04-19T15:09:23;19.4;24.0
78696;SHT31;68030;51.980;5.646;2023-04-19T15:11:52;19.3;23.9
78696;SHT31;68030;51.980;5.646;2023-04-19T15:14:23;19.3;24.2
78696;SHT31;68030;51.980;5.646;2023-04-19T15:16:52;19.3;24.3
78696;SHT31;68030;51.980;5.646;2023-04-19T15:19:22;19.4;24.3
78696;SHT31;68030;51.980;5.646;2023-04-19T15:21:51;19.4;24.0
78696;SHT31;68030;51.980;5.646;2023-04-19T15:24:21;19.4;24.3
78696;SHT31;68030;51.980;5.646;2023-04-19T15:26:51;19.4;24.3
78696;SHT31;68030;51.980;5.646;2023-04-19T15:29:21;19.3;23.5
78696;SHT31;68030;51.980;5.646;2023-04-19T15:31:50;19.3;23.9
78696;SHT31;68030;51.980;5.646;2023-04-19T15:34:20;19.3;23.7
78696;SHT31;68030;51.980;5.646;2023-04-19T15:36:52;19.3;23.6
78696;SHT31;68030;51.980;5.646;2023-04-19T15:39:21;19.3;24.2
78696;SHT31;68030;51.980;5.646;2023-04-19T15:41:52;19.3;24.1
78696;SHT31;68030;51.980;5.646;2023-04-19T15:44:21;19.3;24.4
78696;SHT31;68030;51.980;5.646;2023-04-19T15:46:51;19.3;24.3
78696;SHT31;68030;51.980;5.646;2023-04-19T15:49:20;19.3;24.4
78696;SHT31;68030;51.980;5.646;2023-04-19T15:51:50;19.3;24.9
78696;SHT31;68030;51.980;5.646;2023-04-19T15:54:19;19.3;24.4
78696;SHT31;68030;51.980;5.646;2023-04-19T15:56:49;19.3;24.8
78696;SHT31;68030;51.980;5.646;2023-04-19T15:59:19;19.3;24.7
78696;SHT31;68030;51.980;5.646;2023-04-19T16:01:49;19.3;24.7
78696;SHT31;68030;51.980;5.646;2023-04-19T16:04:18;19.3;25.0
78696;SHT31;68030;51.980;5.646;2023-04-19T16:06:48;19.5;25.3
78696;SHT31;68030;51.980;5.646;2023-04-19T16:09:18;19.8;24.6
78696;SHT31;68030;51.980;5.646;2023-04-19T16:11:49;20.1;24.0
78696;SHT31;68030;51.980;5.646;2023-04-19T16:14:22;20.5;23.7
78696;SHT31;68030;51.980;5.646;2023-04-19T16:16:51;20.8;23.5
78696;SHT31;68030;51.980;5.646;2023-04-19T16:19:22;21.0;23.4
78696;SHT31;68030;51.980;5.646;2023-04-19T16:21:52;21.2;22.8
78696;SHT31;68030;51.980;5.646;2023-04-19T16:24:22;21.3;22.6
78696;SHT31;68030;51.980;5.646;2023-04-19T16:26:54;21.3;22.6